createdAt,value
2023-04-15T00:01:19.381Z,84.03
2023-04-15T00:06:23.290Z,85.14
2023-04-15T00:11:27.866Z,85.36
2023-04-15T00:16:31.191Z,85.17
2023-04-15T00:21:34.724Z,85.71
2023-04-15T00:26:39.392Z,85.41
2023-04-15T00:31:43.415Z,86.02
2023-04-15T00:36:46.584Z,85.67
2023-04-15T00:41:51.441Z,85.50
2023-04-15T00:46:55.484Z,85.79
2023-04-15T00:51:58.713Z,86.06
2023-04-15T00:57:03.597Z,86.40
2023-04-15T01:02:07.325Z,86.42
2023-04-15T01:07:10.420Z,86.42
2023-04-15T01:12:16.623Z,86.70
2023-04-15T01:17:19.913Z,86.73
2023-04-15T01:22:23.812Z,87.23
2023-04-15T01:27:28.475Z,88.17
2023-04-15T01:32:32.007Z,88.82
2023-04-15T01:37:35.610Z,88.77
2023-04-15T01:42:40.040Z,88.93
2023-04-15T01:47:43.747Z,88.35
2023-04-15T01:52:46.983Z,89.61
2023-04-15T01:57:52.447Z,88.84
2023-04-15T02:02:56.936Z,89.02
2023-04-15T02:08:01.805Z,89.24
2023-04-15T02:13:06.954Z,89.78
2023-04-15T02:18:10.277Z,90.01
2023-04-15T02:23:13.351Z,90.33
2023-04-15T02:28:17.714Z,90.46
2023-04-15T02:33:22.938Z,89.76
2023-04-15T02:38:25.968Z,89.64
2023-04-15T02:43:30.574Z,89.42
2023-04-15T02:48:33.795Z,90.66
2023-04-15T02:53:36.858Z,91.16
2023-04-15T02:58:41.398Z,90.16
2023-04-15T03:03:44.483Z,90.77
2023-04-15T03:08:47.686Z,91.31
2023-04-15T03:13:52.528Z,92.72
2023-04-15T03:19:05.326Z,93.56
2023-04-15T03:24:10.174Z,93.24
2023-04-15T03:29:14.841Z,93.22
2023-04-15T03:34:18.100Z,94.16
2023-04-15T03:39:21.050Z,94.77
2023-04-15T03:44:25.519Z,94.81
2023-04-15T03:49:28.469Z,93.67
2023-04-15T03:54:31.656Z,93.64
2023-04-15T03:59:36.116Z,93.60
2023-04-15T04:04:39.207Z,94.10
2023-04-15T04:09:42.360Z,93.42
2023-04-15T04:14:47.070Z,93.64
2023-04-15T04:19:49.984Z,94.99
2023-04-15T04:24:53.273Z,95.53
2023-04-15T04:29:57.641Z,94.53
2023-04-15T04:35:00.616Z,94.94
2023-04-15T04:40:03.744Z,94.44
2023-04-15T04:45:09.048Z,94.98
2023-04-15T04:50:12.112Z,95.58
2023-04-15T04:55:15.295Z,94.64
2023-04-15T05:00:20.411Z,97.61
2023-04-15T05:05:23.628Z,96.02
2023-04-15T05:10:26.767Z,94.08
2023-04-15T05:15:31.169Z,95.41
2023-04-15T05:20:34.341Z,95.33
2023-04-15T05:25:37.423Z,95.28
2023-04-15T05:30:42.837Z,95.05
2023-04-15T05:35:45.820Z,94.64
2023-04-15T05:40:49.468Z,95.42
2023-04-15T05:45:54.048Z,94.88
2023-04-15T05:50:57.127Z,96.29
2023-04-15T05:56:00.206Z,96.68
2023-04-15T06:01:04.754Z,98.26
2023-04-15T06:06:07.817Z,95.39
2023-04-15T06:11:10.902Z,96.82
2023-04-15T06:16:15.250Z,95.47
2023-04-15T06:21:18.587Z,95.18
2023-04-15T06:26:22.028Z,96.66
2023-04-15T06:31:26.865Z,97.97
2023-04-15T06:36:29.951Z,99.80
2023-04-15T06:41:33.042Z,99.44
2023-04-15T06:46:37.366Z,99.09
2023-04-15T06:51:40.965Z,96.67
2023-04-15T06:56:44.556Z,95.97
2023-04-15T07:01:48.930Z,95.59
2023-04-15T07:06:52.078Z,95.13
2023-04-15T07:11:55.107Z,99.12
2023-04-15T07:16:59.563Z,95.16
2023-04-15T07:22:02.725Z,98.46
2023-04-15T07:27:05.759Z,98.69
2023-04-15T07:32:10.569Z,98.15
2023-04-15T07:37:13.955Z,95.64
2023-04-15T07:42:17.520Z,92.52
2023-04-15T07:47:22.205Z,95.43
2023-04-15T07:52:25.268Z,95.57
2023-04-15T07:57:28.492Z,98.64
2023-04-15T08:02:33.081Z,95.15
2023-04-15T08:07:38.028Z,92.72
2023-04-15T08:12:41.552Z,90.97
2023-04-15T08:17:46.006Z,90.95
2023-04-15T08:22:52.052Z,90.90
2023-04-15T08:27:57.160Z,89.56
2023-04-15T08:33:02.123Z,87.91
2023-04-15T08:38:05.288Z,85.79
2023-04-15T08:43:10.644Z,85.43
2023-04-15T08:48:17.249Z,86.16
2023-04-15T08:53:20.745Z,82.26
2023-04-15T08:58:24.685Z,80.42
2023-04-15T09:03:29.815Z,81.75
2023-04-15T09:08:32.918Z,80.60
2023-04-15T09:13:36.063Z,74.00
2023-04-15T09:18:41.102Z,74.59
2023-04-15T09:23:57.211Z,75.76
2023-04-15T09:29:05.978Z,74.37
2023-04-15T09:34:10.464Z,72.65
2023-04-15T09:39:13.902Z,68.45
2023-04-15T09:44:27.381Z,73.55
2023-04-15T09:49:33.089Z,71.12
2023-04-15T09:54:37.855Z,73.39
2023-04-15T09:59:41.476Z,67.16
2023-04-15T10:04:48.012Z,68.55
2023-04-15T10:09:52.025Z,66.84
2023-04-15T10:15:00.661Z,65.68
2023-04-15T10:20:07.309Z,66.71
2023-04-15T10:25:12.109Z,63.35
2023-04-15T10:30:15.864Z,64.62
2023-04-15T10:35:22.412Z,61.06
2023-04-15T10:40:28.401Z,63.43
2023-04-15T10:45:35.685Z,63.52
2023-04-15T10:50:40.624Z,58.85
2023-04-15T10:55:43.867Z,61.41
2023-04-15T11:00:52.755Z,61.14
2023-04-15T11:05:58.197Z,61.01
2023-04-15T11:11:03.645Z,63.09
2023-04-15T11:16:07.502Z,65.05
2023-04-15T11:21:12.928Z,63.11
2023-04-15T11:26:16.410Z,64.62
2023-04-15T11:31:21.068Z,64.53
2023-04-15T11:36:28.422Z,65.33
2023-04-15T11:41:31.768Z,65.49
2023-04-15T11:46:35.016Z,63.33
2023-04-15T11:51:39.419Z,65.21
2023-04-15T11:56:42.934Z,68.08
2023-04-15T12:01:47.641Z,65.08
2023-04-15T12:06:52.240Z,69.67
2023-04-15T12:12:02.214Z,65.39
2023-04-15T12:17:07.711Z,65.64
2023-04-15T12:22:14.179Z,65.77
2023-04-15T12:27:18.334Z,69.22
2023-04-15T12:32:22.958Z,68.60
2023-04-15T12:37:27.651Z,64.37
2023-04-15T12:42:33.624Z,68.24
2023-04-15T12:47:37.283Z,69.48
2023-04-15T12:52:41.803Z,70.62
2023-04-15T12:57:45.178Z,66.85
2023-04-15T13:02:48.893Z,67.02
2023-04-15T13:07:53.593Z,68.53
2023-04-15T13:12:56.951Z,67.79
2023-04-15T13:17:59.977Z,68.99
2023-04-15T13:23:04.799Z,68.85
2023-04-15T13:28:08.208Z,67.74
2023-04-15T13:33:11.388Z,70.21
2023-04-15T13:38:16.176Z,66.00
2023-04-15T13:43:19.461Z,70.94
2023-04-15T13:48:22.565Z,70.31
2023-04-15T13:53:33.861Z,68.87
2023-04-15T13:58:42.797Z,67.05
2023-04-15T14:03:53.638Z,68.80
2023-04-15T14:08:58.177Z,67.41
2023-04-15T14:14:01.262Z,68.64
2023-04-15T14:19:04.733Z,68.45
2023-04-15T14:24:09.886Z,69.30
2023-04-15T14:29:13.126Z,71.43
2023-04-15T14:34:16.196Z,71.26
2023-04-15T14:39:20.987Z,70.57
2023-04-15T14:44:24.216Z,70.93
2023-04-15T14:49:27.423Z,68.69
2023-04-15T14:54:31.964Z,70.49
2023-04-15T14:59:35.009Z,72.21
2023-04-15T15:04:38.278Z,67.98
2023-04-15T15:09:42.873Z,70.24
2023-04-15T15:14:45.972Z,69.06
2023-04-15T15:19:52.152Z,71.00
2023-04-15T15:24:59.158Z,70.74
2023-04-15T15:30:02.440Z,72.05
2023-04-15T15:35:06.182Z,73.66
2023-04-15T15:40:15.696Z,74.93
2023-04-15T15:45:19.543Z,72.67
2023-04-15T15:50:22.626Z,72.87
2023-04-15T15:55:27.442Z,73.65
2023-04-15T16:00:30.880Z,74.61
2023-04-15T16:05:33.983Z,74.31
2023-04-15T16:10:39.354Z,75.34
2023-04-15T16:15:42.484Z,76.64
2023-04-15T16:20:48.559Z,75.92
2023-04-15T16:25:52.917Z,76.37
2023-04-15T16:30:56.299Z,76.09
2023-04-15T16:35:59.522Z,75.75
2023-04-15T16:41:04.514Z,76.86
2023-04-15T16:46:08.011Z,79.41
2023-04-15T16:51:11.119Z,79.71
2023-04-15T16:56:16.108Z,79.74
2023-04-15T17:01:21.541Z,80.12
2023-04-15T17:06:24.737Z,80.08
2023-04-15T17:11:30.178Z,80.43
2023-04-15T17:16:33.302Z,80.09
2023-04-15T17:21:36.928Z,80.42
2023-04-15T17:26:41.717Z,80.66
2023-04-15T17:31:44.841Z,81.45
2023-04-15T17:36:51.291Z,81.67
2023-04-15T17:41:55.788Z,80.61
2023-04-15T17:46:59.205Z,80.39
2023-04-15T17:52:02.482Z,81.26
2023-04-15T17:57:13.521Z,82.65
2023-04-15T18:02:16.876Z,83.29
2023-04-15T18:07:20.183Z,84.90
2023-04-15T18:12:24.516Z,86.19
2023-04-15T18:17:28.974Z,86.88
2023-04-15T18:22:32.367Z,88.32
2023-04-15T18:27:40.270Z,88.53
2023-04-15T18:32:43.401Z,89.84
2023-04-15T18:37:46.615Z,90.35
2023-04-15T18:42:53.316Z,90.45
2023-04-15T18:47:56.456Z,90.84
2023-04-15T18:52:59.540Z,91.46
2023-04-15T18:58:07.569Z,92.44
2023-04-15T19:03:12.498Z,93.24
2023-04-15T19:08:16.077Z,93.26
2023-04-15T19:13:22.684Z,94.51
2023-04-15T19:18:26.225Z,94.45
2023-04-15T19:23:29.282Z,94.90
2023-04-15T19:28:33.732Z,95.33
2023-04-15T19:33:37.122Z,95.98
2023-04-15T19:38:40.395Z,94.89
2023-04-15T19:43:45.009Z,94.67
2023-04-15T19:48:48.357Z,94.94
2023-04-15T19:53:53.959Z,95.08
2023-04-15T19:59:00.103Z,95.79
2023-04-15T20:04:04.220Z,96.68
2023-04-15T20:09:10.388Z,98.43
2023-04-15T20:14:15.669Z,99.56
2023-04-15T20:19:18.650Z,98.49
2023-04-15T20:24:24.293Z,97.53
2023-04-15T20:29:28.875Z,98.18
2023-04-15T20:34:32.037Z,97.50
2023-04-15T20:39:35.783Z,97.58
2023-04-15T20:44:40.782Z,98.14
2023-04-15T20:49:44.246Z,98.38
2023-04-15T20:54:47.412Z,99.38
2023-04-15T20:59:51.918Z,99.36
2023-04-15T21:04:54.913Z,99.65
2023-04-15T21:09:58.073Z,99.72
2023-04-15T21:15:02.852Z,99.63
2023-04-15T21:20:07.119Z,99.46
2023-04-15T21:25:11.164Z,99.63
2023-04-15T21:30:15.813Z,99.73
2023-04-15T21:35:18.956Z,100.00
2023-04-15T21:40:22.127Z,100.00
2023-04-15T21:45:27.111Z,99.99
2023-04-15T21:50:30.127Z,100.00
2023-04-15T21:55:33.278Z,100.00
2023-04-15T22:00:39.717Z,100.00
2023-04-15T22:05:46.004Z,100.00
2023-04-15T22:10:49.398Z,100.00
2023-04-15T22:15:53.901Z,100.00
2023-04-15T22:20:57.377Z,100.00
2023-04-15T22:26:00.781Z,100.00
2023-04-15T22:31:05.463Z,100.00
2023-04-15T22:36:08.763Z,100.00
2023-04-15T22:41:11.770Z,100.00
2023-04-15T22:46:16.800Z,100.00
2023-04-15T22:51:22.693Z,100.00
2023-04-15T22:56:26.006Z,100.00
2023-04-15T23:01:32.134Z,100.00
2023-04-15T23:06:35.309Z,100.00
2023-04-15T23:11:38.590Z,100.00
2023-04-15T23:16:43.233Z,100.00
2023-04-15T23:21:46.538Z,100.00
2023-04-15T23:26:53.074Z,100.00
2023-04-15T23:31:58.005Z,100.00
2023-04-15T23:37:01.338Z,100.00
2023-04-15T23:42:04.759Z,100.00
2023-04-15T23:47:09.174Z,100.00
2023-04-15T23:52:12.198Z,100.00
2023-04-15T23:57:14.985Z,100.00
